sensor_id;sensor_type;location;lat;lon;timestamp;P1;durP1;ratioP1;P2;durP2;ratioP2
78181;SDS011;67441;50.116;8.696;2023-08-20T00:00:21;5.28;;;4.30;;
78181;SDS011;67441;50.116;8.696;2023-08-20T00:00:47;4.60;;;3.40;;
78181;SDS011;67441;50.116;8.696;2023-08-20T00:01:12;6.07;;;4.28;;
78181;SDS011;67441;50.116;8.696;2023-08-20T00:01:39;6.57;;;4.50;;
78181;SDS011;67441;50.116;8.696;2023-08-20T00:02:30;5.50;;;4.20;;
78181;SDS011;67441;50.116;8.696;2023-08-20T00:03:03;5.80;;;4.03;;
78181;SDS011;67441;50.116;8.696;2023-08-20T00:03:29;7.00;;;4.00;;
78181;SDS011;67441;50.116;8.696;2023-08-20T00:04:19;6.60;;;3.90;;
78181;SDS011;67441;50.116;8.696;2023-08-20T00:04:46;5.43;;;3.90;;
78181;SDS011;67441;50.116;8.696;2023-08-20T00:05:37;6.25;;;4.55;;
78181;SDS011;67441;50.116;8.696;2023-08-20T00:06:29;9.98;;;4.65;;
78181;SDS011;67441;50.116;8.696;2023-08-20T00:07:19;4.63;;;3.83;;
78181;SDS011;67441;50.116;8.696;2023-08-20T00:07:44;6.15;;;4.20;;
78181;SDS011;67441;50.116;8.696;2023-08-20T00:08:35;5.43;;;4.60;;
78181;SDS011;67441;50.116;8.696;2023-08-20T00:09:01;4.70;;;3.80;;
78181;SDS011;67441;50.116;8.696;2023-08-20T00:09:52;7.22;;;3.97;;
78181;SDS011;67441;50.116;8.696;2023-08-20T00:10:42;5.55;;;3.72;;
78181;SDS011;67441;50.116;8.696;2023-08-20T00:11:33;5.68;;;4.10;;
78181;SDS011;67441;50.116;8.696;2023-08-20T00:12:23;6.17;;;4.27;;
78181;SDS011;67441;50.116;8.696;2023-08-20T00:12:49;5.75;;;4.03;;
78181;SDS011;67441;50.116;8.696;2023-08-20T00:13:40;6.67;;;3.77;;
78181;SDS011;67441;50.116;8.696;2023-08-20T00:15:39;5.85;;;4.40;;
78181;SDS011;67441;50.116;8.696;2023-08-20T00:16:30;8.13;;;4.68;;
78181;SDS011;67441;50.116;8.696;2023-08-20T00:16:55;5.78;;;4.05;;
78181;SDS011;67441;50.116;8.696;2023-08-20T00:17:46;4.33;;;3.93;;
78181;SDS011;67441;50.116;8.696;2023-08-20T00:18:37;5.93;;;4.20;;
78181;SDS011;67441;50.116;8.696;2023-08-20T00:19:03;5.78;;;4.30;;
78181;SDS011;67441;50.116;8.696;2023-08-20T00:19:54;5.07;;;4.05;;
78181;SDS011;67441;50.116;8.696;2023-08-20T00:20:45;5.37;;;3.97;;
78181;SDS011;67441;50.116;8.696;2023-08-20T00:21:35;6.27;;;4.00;;
78181;SDS011;67441;50.116;8.696;2023-08-20T00:22:04;5.65;;;4.20;;
78181;SDS011;67441;50.116;8.696;2023-08-20T00:22:55;5.00;;;4.10;;
78181;SDS011;67441;50.116;8.696;2023-08-20T00:23:45;4.17;;;3.77;;
78181;SDS011;67441;50.116;8.696;2023-08-20T00:24:11;6.10;;;4.00;;
78181;SDS011;67441;50.116;8.696;2023-08-20T00:25:02;5.17;;;4.33;;
78181;SDS011;67441;50.116;8.696;2023-08-20T00:25:28;5.97;;;4.03;;
78181;SDS011;67441;50.116;8.696;2023-08-20T00:26:19;4.87;;;4.30;;
78181;SDS011;67441;50.116;8.696;2023-08-20T00:27:09;5.00;;;3.80;;
78181;SDS011;67441;50.116;8.696;2023-08-20T00:27:34;6.43;;;4.20;;
78181;SDS011;67441;50.116;8.696;2023-08-20T00:28:25;5.97;;;3.83;;
78181;SDS011;67441;50.116;8.696;2023-08-20T00:28:50;5.15;;;4.20;;
78181;SDS011;67441;50.116;8.696;2023-08-20T00:29:40;6.77;;;4.37;;
78181;SDS011;67441;50.116;8.696;2023-08-20T00:30:05;7.25;;;4.30;;
78181;SDS011;67441;50.116;8.696;2023-08-20T00:30:56;5.33;;;3.93;;
78181;SDS011;67441;50.116;8.696;2023-08-20T00:31:46;6.60;;;4.10;;
78181;SDS011;67441;50.116;8.696;2023-08-20T00:32:37;4.60;;;4.10;;
78181;SDS011;67441;50.116;8.696;2023-08-20T00:33:27;8.45;;;4.07;;
78181;SDS011;67441;50.116;8.696;2023-08-20T00:34:17;5.32;;;3.95;;
78181;SDS011;67441;50.116;8.696;2023-08-20T00:35:08;6.07;;;4.10;;
78181;SDS011;67441;50.116;8.696;2023-08-20T00:35:58;5.50;;;3.83;;
78181;SDS011;67441;50.116;8.696;2023-08-20T00:36:49;5.20;;;4.27;;
78181;SDS011;67441;50.116;8.696;2023-08-20T00:37:14;9.68;;;6.60;;
78181;SDS011;67441;50.116;8.696;2023-08-20T00:38:05;5.68;;;4.35;;
78181;SDS011;67441;50.116;8.696;2023-08-20T00:38:55;5.37;;;3.87;;
78181;SDS011;67441;50.116;8.696;2023-08-20T00:39:46;7.07;;;4.15;;
78181;SDS011;67441;50.116;8.696;2023-08-20T00:40:36;6.13;;;4.03;;
78181;SDS011;67441;50.116;8.696;2023-08-20T00:41:01;7.57;;;4.18;;
78181;SDS011;67441;50.116;8.696;2023-08-20T00:41:26;5.65;;;4.05;;
78181;SDS011;67441;50.116;8.696;2023-08-20T00:41:52;6.50;;;4.13;;
78181;SDS011;67441;50.116;8.696;2023-08-20T00:42:18;5.60;;;4.03;;
78181;SDS011;67441;50.116;8.696;2023-08-20T00:43:08;5.03;;;4.53;;
78181;SDS011;67441;50.116;8.696;2023-08-20T00:43:33;6.25;;;4.18;;
78181;SDS011;67441;50.116;8.696;2023-08-20T00:44:24;5.13;;;4.20;;
78181;SDS011;67441;50.116;8.696;2023-08-20T00:45:14;6.33;;;4.33;;
78181;SDS011;67441;50.116;8.696;2023-08-20T00:45:41;4.75;;;3.90;;
78181;SDS011;67441;50.116;8.696;2023-08-20T00:46:32;5.53;;;4.10;;
78181;SDS011;67441;50.116;8.696;2023-08-20T00:46:57;5.25;;;4.15;;
78181;SDS011;67441;50.116;8.696;2023-08-20T00:47:25;4.78;;;3.95;;
78181;SDS011;67441;50.116;8.696;2023-08-20T00:48:16;5.33;;;4.17;;
78181;SDS011;67441;50.116;8.696;2023-08-20T00:48:42;5.38;;;3.78;;
78181;SDS011;67441;50.116;8.696;2023-08-20T00:49:32;4.23;;;3.70;;
78181;SDS011;67441;50.116;8.696;2023-08-20T00:50:23;4.85;;;3.83;;
78181;SDS011;67441;50.116;8.696;2023-08-20T00:50:48;4.88;;;3.88;;
78181;SDS011;67441;50.116;8.696;2023-08-20T00:51:13;5.60;;;3.97;;
78181;SDS011;67441;50.116;8.696;2023-08-20T00:52:03;5.17;;;3.60;;
78181;SDS011;67441;50.116;8.696;2023-08-20T00:52:29;5.60;;;4.68;;
78181;SDS011;67441;50.116;8.696;2023-08-20T00:53:19;6.68;;;4.15;;
78181;SDS011;67441;50.116;8.696;2023-08-20T00:54:10;4.90;;;3.80;;
78181;SDS011;67441;50.116;8.696;2023-08-20T00:55:06;5.40;;;4.13;;
78181;SDS011;67441;50.116;8.696;2023-08-20T00:55:32;6.55;;;4.35;;
78181;SDS011;67441;50.116;8.696;2023-08-20T00:56:22;6.60;;;4.00;;
78181;SDS011;67441;50.116;8.696;2023-08-20T00:57:13;5.50;;;4.20;;
78181;SDS011;67441;50.116;8.696;2023-08-20T00:57:40;6.78;;;4.32;;
78181;SDS011;67441;50.116;8.696;2023-08-20T00:58:30;6.00;;;4.27;;
78181;SDS011;67441;50.116;8.696;2023-08-20T00:58:56;5.45;;;4.20;;
78181;SDS011;67441;50.116;8.696;2023-08-20T00:59:47;6.43;;;4.30;;
78181;SDS011;67441;50.116;8.696;2023-08-20T01:00:13;6.63;;;4.07;;
78181;SDS011;67441;50.116;8.696;2023-08-20T01:00:40;5.40;;;3.72;;
78181;SDS011;67441;50.116;8.696;2023-08-20T01:01:31;5.47;;;4.03;;
78181;SDS011;67441;50.116;8.696;2023-08-20T01:01:56;6.03;;;4.18;;
78181;SDS011;67441;50.116;8.696;2023-08-20T01:02:21;5.45;;;4.38;;
78181;SDS011;67441;50.116;8.696;2023-08-20T01:03:11;5.47;;;4.33;;
78181;SDS011;67441;50.116;8.696;2023-08-20T01:03:37;5.35;;;3.90;;
78181;SDS011;67441;50.116;8.696;2023-08-20T01:04:28;5.90;;;4.18;;
78181;SDS011;67441;50.116;8.696;2023-08-20T01:04:54;5.28;;;3.75;;
78181;SDS011;67441;50.116;8.696;2023-08-20T01:05:46;5.33;;;4.27;;
78181;SDS011;67441;50.116;8.696;2023-08-20T01:07:30;5.80;;;4.20;;
78181;SDS011;67441;50.116;8.696;2023-08-20T01:08:10;5.28;;;4.25;;
78181;SDS011;67441;50.116;8.696;2023-08-20T01:08:38;6.10;;;4.18;;
78181;SDS011;67441;50.116;8.696;2023-08-20T01:09:10;7.03;;;4.20;;
78181;SDS011;67441;50.116;8.696;2023-08-20T01:11:21;7.53;;;4.53;;
78181;SDS011;67441;50.116;8.696;2023-08-20T01:11:49;5.43;;;4.35;;
78181;SDS011;67441;50.116;8.696;2023-08-20T01:12:17;5.90;;;4.30;;
78181;SDS011;67441;50.116;8.696;2023-08-20T01:13:08;5.73;;;4.37;;
78181;SDS011;67441;50.116;8.696;2023-08-20T01:13:58;5.97;;;4.70;;
78181;SDS011;67441;50.116;8.696;2023-08-20T01:14:26;7.10;;;4.30;;
78181;SDS011;67441;50.116;8.696;2023-08-20T01:15:16;5.27;;;4.10;;
78181;SDS011;67441;50.116;8.696;2023-08-20T01:15:41;7.13;;;4.03;;
78181;SDS011;67441;50.116;8.696;2023-08-20T01:16:32;7.63;;;4.32;;
78181;SDS011;67441;50.116;8.696;2023-08-20T01:16:57;6.97;;;4.30;;
78181;SDS011;67441;50.116;8.696;2023-08-20T01:17:48;8.15;;;4.10;;
78181;SDS011;67441;50.116;8.696;2023-08-20T01:18:38;5.63;;;4.30;;
78181;SDS011;67441;50.116;8.696;2023-08-20T01:19:03;6.05;;;3.97;;
78181;SDS011;67441;50.116;8.696;2023-08-20T01:19:54;4.43;;;4.03;;
78181;SDS011;67441;50.116;8.696;2023-08-20T01:20:19;7.00;;;4.35;;
78181;SDS011;67441;50.116;8.696;2023-08-20T01:20:53;7.00;;;4.22;;
78181;SDS011;67441;50.116;8.696;2023-08-20T01:21:24;6.13;;;4.70;;
78181;SDS011;67441;50.116;8.696;2023-08-20T01:24:17;5.43;;;4.50;;
78181;SDS011;67441;50.116;8.696;2023-08-20T01:25:08;7.28;;;4.78;;
78181;SDS011;67441;50.116;8.696;2023-08-20T01:26:38;7.03;;;4.35;;
78181;SDS011;67441;50.116;8.696;2023-08-20T01:27:08;6.65;;;4.65;;
78181;SDS011;67441;50.116;8.696;2023-08-20T01:28:43;6.35;;;5.13;;
78181;SDS011;67441;50.116;8.696;2023-08-20T01:29:36;5.18;;;4.32;;
78181;SDS011;67441;50.116;8.696;2023-08-20T01:30:28;5.90;;;4.43;;
78181;SDS011;67441;50.116;8.696;2023-08-20T01:31:19;8.00;;;4.63;;
78181;SDS011;67441;50.116;8.696;2023-08-20T01:32:10;7.00;;;4.57;;
78181;SDS011;67441;50.116;8.696;2023-08-20T01:32:36;6.60;;;5.05;;
78181;SDS011;67441;50.116;8.696;2023-08-20T01:33:27;7.25;;;4.50;;
78181;SDS011;67441;50.116;8.696;2023-08-20T01:34:17;6.30;;;4.50;;
78181;SDS011;67441;50.116;8.696;2023-08-20T01:34:42;6.50;;;4.57;;
78181;SDS011;67441;50.116;8.696;2023-08-20T01:35:33;6.57;;;4.43;;
78181;SDS011;67441;50.116;8.696;2023-08-20T01:36:23;6.03;;;4.07;;
78181;SDS011;67441;50.116;8.696;2023-08-20T01:37:14;9.65;;;4.90;;
78181;SDS011;67441;50.116;8.696;2023-08-20T01:38:04;6.70;;;4.77;;
78181;SDS011;67441;50.116;8.696;2023-08-20T01:38:29;6.18;;;4.38;;
78181;SDS011;67441;50.116;8.696;2023-08-20T01:38:55;6.35;;;4.72;;
78181;SDS011;67441;50.116;8.696;2023-08-20T01:39:45;5.72;;;4.63;;
78181;SDS011;67441;50.116;8.696;2023-08-20T01:40:35;6.43;;;4.57;;
78181;SDS011;67441;50.116;8.696;2023-08-20T01:41:01;6.47;;;5.07;;
78181;SDS011;67441;50.116;8.696;2023-08-20T01:41:26;5.25;;;4.75;;
78181;SDS011;67441;50.116;8.696;2023-08-20T01:41:51;7.32;;;4.40;;
78181;SDS011;67441;50.116;8.696;2023-08-20T01:42:41;5.87;;;4.63;;
78181;SDS011;67441;50.116;8.696;2023-08-20T01:43:06;6.60;;;4.47;;
78181;SDS011;67441;50.116;8.696;2023-08-20T01:43:57;7.50;;;4.72;;
78181;SDS011;67441;50.116;8.696;2023-08-20T01:44:22;7.63;;;5.03;;
78181;SDS011;67441;50.116;8.696;2023-08-20T01:45:13;5.53;;;4.40;;
78181;SDS011;67441;50.116;8.696;2023-08-20T01:46:03;5.25;;;4.28;;
78181;SDS011;67441;50.116;8.696;2023-08-20T01:46:28;6.60;;;4.18;;
78181;SDS011;67441;50.116;8.696;2023-08-20T01:47:19;5.18;;;4.47;;
78181;SDS011;67441;50.116;8.696;2023-08-20T01:48:09;5.53;;;4.70;;
78181;SDS011;67441;50.116;8.696;2023-08-20T01:48:34;5.75;;;4.50;;
78181;SDS011;67441;50.116;8.696;2023-08-20T01:49:24;5.30;;;4.72;;
78181;SDS011;67441;50.116;8.696;2023-08-20T01:50:15;4.97;;;4.47;;
78181;SDS011;67441;50.116;8.696;2023-08-20T01:51:05;5.47;;;4.67;;
78181;SDS011;67441;50.116;8.696;2023-08-20T01:51:56;5.70;;;4.03;;
78181;SDS011;67441;50.116;8.696;2023-08-20T01:52:47;6.10;;;4.28;;
78181;SDS011;67441;50.116;8.696;2023-08-20T01:53:37;7.30;;;4.60;;
78181;SDS011;67441;50.116;8.696;2023-08-20T01:54:27;7.43;;;4.63;;
78181;SDS011;67441;50.116;8.696;2023-08-20T01:54:53;6.38;;;4.63;;
78181;SDS011;67441;50.116;8.696;2023-08-20T01:55:44;5.00;;;4.25;;
78181;SDS011;67441;50.116;8.696;2023-08-20T01:56:12;5.40;;;4.32;;
78181;SDS011;67441;50.116;8.696;2023-08-20T01:56:38;5.38;;;4.75;;
78181;SDS011;67441;50.116;8.696;2023-08-20T01:57:28;5.87;;;4.20;;
78181;SDS011;67441;50.116;8.696;2023-08-20T01:57:53;6.90;;;4.63;;
78181;SDS011;67441;50.116;8.696;2023-08-20T01:58:44;5.15;;;4.60;;
78181;SDS011;67441;50.116;8.696;2023-08-20T01:59:34;6.43;;;4.10;;
78181;SDS011;67441;50.116;8.696;2023-08-20T02:00:00;4.80;;;4.30;;
78181;SDS011;67441;50.116;8.696;2023-08-20T02:00:50;5.07;;;4.05;;
78181;SDS011;67441;50.116;8.696;2023-08-20T02:01:41;7.60;;;4.73;;
78181;SDS011;67441;50.116;8.696;2023-08-20T02:02:31;7.27;;;5.00;;
78181;SDS011;67441;50.116;8.696;2023-08-20T02:03:22;6.03;;;4.57;;
78181;SDS011;67441;50.116;8.696;2023-08-20T02:03:47;6.82;;;4.90;;
78181;SDS011;67441;50.116;8.696;2023-08-20T02:04:13;5.82;;;4.38;;
78181;SDS011;67441;50.116;8.696;2023-08-20T02:04:38;6.00;;;4.57;;
78181;SDS011;67441;50.116;8.696;2023-08-20T02:05:28;7.20;;;4.83;;
78181;SDS011;67441;50.116;8.696;2023-08-20T02:06:18;6.97;;;5.10;;
78181;SDS011;67441;50.116;8.696;2023-08-20T02:06:43;7.45;;;4.22;;
78181;SDS011;67441;50.116;8.696;2023-08-20T02:07:34;6.87;;;5.07;;
78181;SDS011;67441;50.116;8.696;2023-08-20T02:07:59;5.90;;;4.50;;
78181;SDS011;67441;50.116;8.696;2023-08-20T02:08:49;7.20;;;4.83;;
78181;SDS011;67441;50.116;8.696;2023-08-20T02:09:15;5.82;;;4.38;;
78181;SDS011;67441;50.116;8.696;2023-08-20T02:10:05;7.10;;;5.07;;
78181;SDS011;67441;50.116;8.696;2023-08-20T02:10:30;6.32;;;4.32;;
78181;SDS011;67441;50.116;8.696;2023-08-20T02:11:21;5.73;;;4.40;;
78181;SDS011;67441;50.116;8.696;2023-08-20T02:12:11;7.47;;;5.20;;
78181;SDS011;67441;50.116;8.696;2023-08-20T02:13:01;5.40;;;4.67;;
78181;SDS011;67441;50.116;8.696;2023-08-20T02:13:27;6.03;;;4.40;;
78181;SDS011;67441;50.116;8.696;2023-08-20T02:14:17;6.68;;;4.57;;
78181;SDS011;67441;50.116;8.696;2023-08-20T02:14:42;6.88;;;4.65;;
78181;SDS011;67441;50.116;8.696;2023-08-20T02:15:32;6.65;;;4.53;;
78181;SDS011;67441;50.116;8.696;2023-08-20T02:16:23;8.20;;;5.27;;
78181;SDS011;67441;50.116;8.696;2023-08-20T02:17:13;7.72;;;4.80;;
78181;SDS011;67441;50.116;8.696;2023-08-20T02:18:04;6.40;;;4.83;;
78181;SDS011;67441;50.116;8.696;2023-08-20T02:18:54;6.53;;;4.63;;
78181;SDS011;67441;50.116;8.696;2023-08-20T02:19:45;4.80;;;4.30;;
78181;SDS011;67441;50.116;8.696;2023-08-20T02:20:10;6.18;;;4.93;;
78181;SDS011;67441;50.116;8.696;2023-08-20T02:21:00;6.23;;;4.57;;
78181;SDS011;67441;50.116;8.696;2023-08-20T02:21:25;5.95;;;4.57;;
78181;SDS011;67441;50.116;8.696;2023-08-20T02:22:16;6.43;;;4.60;;
78181;SDS011;67441;50.116;8.696;2023-08-20T02:22:42;6.00;;;4.10;;
78181;SDS011;67441;50.116;8.696;2023-08-20T02:23:32;6.43;;;4.53;;
78181;SDS011;67441;50.116;8.696;2023-08-20T02:23:57;5.88;;;4.43;;
78181;SDS011;67441;50.116;8.696;2023-08-20T02:24:48;5.18;;;4.10;;
78181;SDS011;67441;50.116;8.696;2023-08-20T02:25:38;5.50;;;4.23;;
78181;SDS011;67441;50.116;8.696;2023-08-20T02:26:03;5.53;;;4.43;;
78181;SDS011;67441;50.116;8.696;2023-08-20T02:26:29;6.30;;;4.70;;
78181;SDS011;67441;50.116;8.696;2023-08-20T02:27:19;4.90;;;4.40;;
78181;SDS011;67441;50.116;8.696;2023-08-20T02:27:44;5.22;;;4.18;;
78181;SDS011;67441;50.116;8.696;2023-08-20T02:28:34;5.22;;;4.72;;
78181;SDS011;67441;50.116;8.696;2023-08-20T02:29:00;6.40;;;4.65;;
78181;SDS011;67441;50.116;8.696;2023-08-20T02:29:50;5.20;;;4.27;;
78181;SDS011;67441;50.116;8.696;2023-08-20T02:30:16;6.85;;;4.43;;
78181;SDS011;67441;50.116;8.696;2023-08-20T02:31:06;6.63;;;4.20;;
78181;SDS011;67441;50.116;8.696;2023-08-20T02:31:57;8.73;;;4.90;;
78181;SDS011;67441;50.116;8.696;2023-08-20T02:32:47;6.57;;;4.55;;
78181;SDS011;67441;50.116;8.696;2023-08-20T02:33:37;6.37;;;4.47;;
78181;SDS011;67441;50.116;8.696;2023-08-20T02:34:03;6.30;;;4.75;;
78181;SDS011;67441;50.116;8.696;2023-08-20T02:34:53;8.80;;;4.40;;
78181;SDS011;67441;50.116;8.696;2023-08-20T02:35:44;6.65;;;4.57;;
78181;SDS011;67441;50.116;8.696;2023-08-20T02:36:09;5.45;;;4.63;;
78181;SDS011;67441;50.116;8.696;2023-08-20T02:36:34;6.68;;;4.72;;
78181;SDS011;67441;50.116;8.696;2023-08-20T02:37:25;6.17;;;4.67;;
78181;SDS011;67441;50.116;8.696;2023-08-20T02:37:50;6.85;;;4.40;;
78181;SDS011;67441;50.116;8.696;2023-08-20T02:38:40;5.03;;;4.50;;
78181;SDS011;67441;50.116;8.696;2023-08-20T02:39:06;5.75;;;4.75;;
78181;SDS011;67441;50.116;8.696;2023-08-20T02:39:32;6.25;;;4.72;;
78181;SDS011;67441;50.116;8.696;2023-08-20T02:40:23;6.00;;;4.60;;
78181;SDS011;67441;50.116;8.696;2023-08-20T02:41:13;6.27;;;4.93;;
78181;SDS011;67441;50.116;8.696;2023-08-20T02:41:38;7.82;;;4.70;;
78181;SDS011;67441;50.116;8.696;2023-08-20T02:42:28;5.83;;;5.07;;
78181;SDS011;67441;50.116;8.696;2023-08-20T02:43:19;6.00;;;4.33;;
78181;SDS011;67441;50.116;8.696;2023-08-20T02:44:09;4.80;;;4.30;;
78181;SDS011;67441;50.116;8.696;2023-08-20T02:44:34;6.53;;;4.85;;
78181;SDS011;67441;50.116;8.696;2023-08-20T02:44:59;5.07;;;4.57;;
78181;SDS011;67441;50.116;8.696;2023-08-20T02:45:50;4.95;;;4.45;;
78181;SDS011;67441;50.116;8.696;2023-08-20T02:46:40;5.07;;;4.40;;
78181;SDS011;67441;50.116;8.696;2023-08-20T02:47:08;8.02;;;4.68;;
78181;SDS011;67441;50.116;8.696;2023-08-20T02:47:33;5.65;;;4.35;;
78181;SDS011;67441;50.116;8.696;2023-08-20T02:48:24;4.97;;;4.47;;
78181;SDS011;67441;50.116;8.696;2023-08-20T02:48:52;6.38;;;5.18;;
78181;SDS011;67441;50.116;8.696;2023-08-20T02:49:42;5.80;;;4.47;;
78181;SDS011;67441;50.116;8.696;2023-08-20T02:50:32;6.20;;;4.43;;
78181;SDS011;67441;50.116;8.696;2023-08-20T02:50:57;5.55;;;4.80;;
78181;SDS011;67441;50.116;8.696;2023-08-20T02:51:48;6.10;;;4.43;;
78181;SDS011;67441;50.116;8.696;2023-08-20T02:52:13;7.00;;;4.80;;
78181;SDS011;67441;50.116;8.696;2023-08-20T02:53:03;6.73;;;4.60;;
78181;SDS011;67441;50.116;8.696;2023-08-20T02:53:53;5.93;;;4.40;;
78181;SDS011;67441;50.116;8.696;2023-08-20T02:54:19;6.65;;;4.53;;
78181;SDS011;67441;50.116;8.696;2023-08-20T02:55:09;5.77;;;4.80;;
78181;SDS011;67441;50.116;8.696;2023-08-20T02:55:34;7.80;;;5.00;;
78181;SDS011;67441;50.116;8.696;2023-08-20T02:56:00;9.65;;;4.50;;
78181;SDS011;67441;50.116;8.696;2023-08-20T02:56:50;7.07;;;4.57;;
78181;SDS011;67441;50.116;8.696;2023-08-20T02:57:41;5.05;;;4.35;;
78181;SDS011;67441;50.116;8.696;2023-08-20T02:58:34;6.68;;;4.63;;
78181;SDS011;67441;50.116;8.696;2023-08-20T02:59:24;7.03;;;4.73;;
78181;SDS011;67441;50.116;8.696;2023-08-20T02:59:50;7.53;;;4.78;;
78181;SDS011;67441;50.116;8.696;2023-08-20T03:00:41;6.68;;;4.40;;
78181;SDS011;67441;50.116;8.696;2023-08-20T03:01:07;7.30;;;4.78;;
78181;SDS011;67441;50.116;8.696;2023-08-20T03:01:42;5.82;;;4.72;;
78181;SDS011;67441;50.116;8.696;2023-08-20T03:02:32;5.60;;;4.73;;
78181;SDS011;67441;50.116;8.696;2023-08-20T03:03:23;7.43;;;5.20;;
78181;SDS011;67441;50.116;8.696;2023-08-20T03:04:13;7.77;;;4.90;;
78181;SDS011;67441;50.116;8.696;2023-08-20T03:05:04;6.93;;;4.90;;
78181;SDS011;67441;50.116;8.696;2023-08-20T03:05:31;6.95;;;4.82;;
78181;SDS011;67441;50.116;8.696;2023-08-20T03:05:57;6.35;;;4.82;;
78181;SDS011;67441;50.116;8.696;2023-08-20T03:06:47;5.00;;;4.37;;
78181;SDS011;67441;50.116;8.696;2023-08-20T03:07:12;5.38;;;4.68;;
78181;SDS011;67441;50.116;8.696;2023-08-20T03:07:37;5.83;;;4.83;;
78181;SDS011;67441;50.116;8.696;2023-08-20T03:08:30;5.95;;;4.85;;
78181;SDS011;67441;50.116;8.696;2023-08-20T03:09:21;8.13;;;4.63;;
78181;SDS011;67441;50.116;8.696;2023-08-20T03:10:11;5.07;;;4.37;;
78181;SDS011;67441;50.116;8.696;2023-08-20T03:11:01;7.30;;;4.97;;
78181;SDS011;67441;50.116;8.696;2023-08-20T03:11:27;5.65;;;4.97;;
78181;SDS011;67441;50.116;8.696;2023-08-20T03:12:17;7.23;;;4.60;;
78181;SDS011;67441;50.116;8.696;2023-08-20T03:12:42;6.50;;;5.20;;
78181;SDS011;67441;50.116;8.696;2023-08-20T03:13:08;6.70;;;4.80;;
78181;SDS011;67441;50.116;8.696;2023-08-20T03:13:58;5.57;;;4.80;;
78181;SDS011;67441;50.116;8.696;2023-08-20T03:14:23;6.43;;;4.97;;
78181;SDS011;67441;50.116;8.696;2023-08-20T03:14:48;7.35;;;5.15;;
78181;SDS011;67441;50.116;8.696;2023-08-20T03:15:13;7.57;;;5.10;;
78181;SDS011;67441;50.116;8.696;2023-08-20T03:15:39;7.35;;;5.28;;
78181;SDS011;67441;50.116;8.696;2023-08-20T03:16:04;5.25;;;4.75;;
78181;SDS011;67441;50.116;8.696;2023-08-20T03:16:54;7.70;;;5.70;;
78181;SDS011;67441;50.116;8.696;2023-08-20T03:17:45;7.17;;;4.73;;
78181;SDS011;67441;50.116;8.696;2023-08-20T03:18:35;7.65;;;5.18;;
78181;SDS011;67441;50.116;8.696;2023-08-20T03:19:25;6.60;;;5.30;;
78181;SDS011;67441;50.116;8.696;2023-08-20T03:20:16;9.10;;;4.87;;
78181;SDS011;67441;50.116;8.696;2023-08-20T03:21:06;7.40;;;5.10;;
78181;SDS011;67441;50.116;8.696;2023-08-20T03:21:56;7.22;;;5.35;;
78181;SDS011;67441;50.116;8.696;2023-08-20T03:22:47;8.95;;;5.53;;
78181;SDS011;67441;50.116;8.696;2023-08-20T03:23:12;7.63;;;5.20;;
78181;SDS011;67441;50.116;8.696;2023-08-20T03:24:03;7.22;;;5.43;;
78181;SDS011;67441;50.116;8.696;2023-08-20T03:24:53;5.72;;;5.05;;
78181;SDS011;67441;50.116;8.696;2023-08-20T03:25:43;6.33;;;5.53;;
78181;SDS011;67441;50.116;8.696;2023-08-20T03:26:34;6.55;;;4.82;;
78181;SDS011;67441;50.116;8.696;2023-08-20T03:27:24;8.60;;;5.43;;
78181;SDS011;67441;50.116;8.696;2023-08-20T03:27:49;6.68;;;4.85;;
78181;SDS011;67441;50.116;8.696;2023-08-20T03:28:15;6.32;;;4.53;;
78181;SDS011;67441;50.116;8.696;2023-08-20T03:28:40;6.28;;;5.13;;
78181;SDS011;67441;50.116;8.696;2023-08-20T03:29:31;6.63;;;5.30;;
78181;SDS011;67441;50.116;8.696;2023-08-20T03:30:21;7.55;;;4.97;;
78181;SDS011;67441;50.116;8.696;2023-08-20T03:31:12;7.78;;;5.25;;
78181;SDS011;67441;50.116;8.696;2023-08-20T03:32:02;5.80;;;4.90;;
78181;SDS011;67441;50.116;8.696;2023-08-20T03:32:52;7.28;;;5.18;;
78181;SDS011;67441;50.116;8.696;2023-08-20T03:33:18;6.82;;;5.38;;
78181;SDS011;67441;50.116;8.696;2023-08-20T03:34:08;6.43;;;5.18;;
78181;SDS011;67441;50.116;8.696;2023-08-20T03:34:34;6.97;;;5.50;;
78181;SDS011;67441;50.116;8.696;2023-08-20T03:35:24;7.28;;;5.13;;
78181;SDS011;67441;50.116;8.696;2023-08-20T03:36:15;6.23;;;4.87;;
78181;SDS011;67441;50.116;8.696;2023-08-20T03:37:05;6.17;;;5.27;;
78181;SDS011;67441;50.116;8.696;2023-08-20T03:37:55;9.37;;;5.53;;
78181;SDS011;67441;50.116;8.696;2023-08-20T03:38:47;7.43;;;5.07;;
78181;SDS011;67441;50.116;8.696;2023-08-20T03:39:38;7.70;;;5.50;;
78181;SDS011;67441;50.116;8.696;2023-08-20T03:40:30;6.95;;;5.50;;
78181;SDS011;67441;50.116;8.696;2023-08-20T03:41:21;8.80;;;5.55;;
78181;SDS011;67441;50.116;8.696;2023-08-20T03:42:11;6.88;;;5.18;;
78181;SDS011;67441;50.116;8.696;2023-08-20T03:43:02;7.80;;;5.55;;
78181;SDS011;67441;50.116;8.696;2023-08-20T03:43:27;5.22;;;4.57;;
78181;SDS011;67441;50.116;8.696;2023-08-20T03:43:52;6.07;;;5.38;;
78181;SDS011;67441;50.116;8.696;2023-08-20T03:44:43;7.30;;;5.35;;
78181;SDS011;67441;50.116;8.696;2023-08-20T03:45:33;6.57;;;4.72;;
78181;SDS011;67441;50.116;8.696;2023-08-20T03:46:24;7.78;;;5.10;;
78181;SDS011;67441;50.116;8.696;2023-08-20T03:47:14;7.18;;;5.07;;
78181;SDS011;67441;50.116;8.696;2023-08-20T03:48:09;7.68;;;5.20;;
78181;SDS011;67441;50.116;8.696;2023-08-20T03:48:59;5.20;;;4.43;;
78181;SDS011;67441;50.116;8.696;2023-08-20T03:49:49;7.18;;;5.82;;
78181;SDS011;67441;50.116;8.696;2023-08-20T03:50:40;7.27;;;5.13;;
78181;SDS011;67441;50.116;8.696;2023-08-20T03:51:05;7.70;;;5.32;;
78181;SDS011;67441;50.116;8.696;2023-08-20T03:51:55;5.80;;;5.03;;
78181;SDS011;67441;50.116;8.696;2023-08-20T03:52:20;8.77;;;5.38;;
78181;SDS011;67441;50.116;8.696;2023-08-20T03:52:46;7.78;;;5.63;;
78181;SDS011;67441;50.116;8.696;2023-08-20T03:53:36;6.63;;;5.37;;
78181;SDS011;67441;50.116;8.696;2023-08-20T03:54:30;6.65;;;4.65;;
78181;SDS011;67441;50.116;8.696;2023-08-20T03:54:55;6.93;;;5.80;;
78181;SDS011;67441;50.116;8.696;2023-08-20T03:55:49;8.23;;;4.97;;
78181;SDS011;67441;50.116;8.696;2023-08-20T03:56:14;6.97;;;5.15;;
78181;SDS011;67441;50.116;8.696;2023-08-20T03:57:05;7.50;;;5.60;;
78181;SDS011;67441;50.116;8.696;2023-08-20T03:57:30;7.88;;;5.72;;
78181;SDS011;67441;50.116;8.696;2023-08-20T03:57:55;6.13;;;5.13;;
78181;SDS011;67441;50.116;8.696;2023-08-20T03:58:45;6.82;;;5.07;;
78181;SDS011;67441;50.116;8.696;2023-08-20T03:59:36;9.85;;;5.32;;
78181;SDS011;67441;50.116;8.696;2023-08-20T04:00:27;8.38;;;5.50;;
78181;SDS011;67441;50.116;8.696;2023-08-20T04:01:18;7.13;;;5.17;;
78181;SDS011;67441;50.116;8.696;2023-08-20T04:02:08;6.90;;;5.00;;
78181;SDS011;67441;50.116;8.696;2023-08-20T04:02:34;7.00;;;4.97;;
78181;SDS011;67441;50.116;8.696;2023-08-20T04:02:59;7.53;;;5.05;;
78181;SDS011;67441;50.116;8.696;2023-08-20T04:03:49;8.82;;;5.53;;
78181;SDS011;67441;50.116;8.696;2023-08-20T04:04:40;7.67;;;5.43;;
78181;SDS011;67441;50.116;8.696;2023-08-20T04:05:05;7.45;;;5.38;;
78181;SDS011;67441;50.116;8.696;2023-08-20T04:05:56;9.73;;;5.23;;
78181;SDS011;67441;50.116;8.696;2023-08-20T04:06:21;8.25;;;5.65;;
78181;SDS011;67441;50.116;8.696;2023-08-20T04:06:46;7.05;;;4.80;;
78181;SDS011;67441;50.116;8.696;2023-08-20T04:07:37;8.50;;;5.35;;
78181;SDS011;67441;50.116;8.696;2023-08-20T04:08:02;7.32;;;5.10;;
78181;SDS011;67441;50.116;8.696;2023-08-20T04:08:53;5.60;;;5.00;;
78181;SDS011;67441;50.116;8.696;2023-08-20T04:09:18;7.97;;;5.13;;
78181;SDS011;67441;50.116;8.696;2023-08-20T04:10:08;6.72;;;5.20;;
78181;SDS011;67441;50.116;8.696;2023-08-20T04:10:59;5.73;;;4.70;;
78181;SDS011;67441;50.116;8.696;2023-08-20T04:11:24;6.45;;;4.85;;
78181;SDS011;67441;50.116;8.696;2023-08-20T04:12:15;6.93;;;5.70;;
78181;SDS011;67441;50.116;8.696;2023-08-20T04:12:40;7.35;;;5.10;;
78181;SDS011;67441;50.116;8.696;2023-08-20T04:13:30;6.72;;;5.07;;